createdAt,value
2024-03-25T00:00:26.363Z,97690.89
2024-03-25T00:03:17.916Z,97692.31
2024-03-25T00:05:49.463Z,97688.45
2024-03-25T00:08:21.017Z,97687.96
2024-03-25T00:10:52.582Z,97685.42
2024-03-25T00:13:24.235Z,97682.34
2024-03-25T00:15:55.888Z,97682.80
2024-03-25T00:18:27.656Z,97680.59
2024-03-25T00:20:57.563Z,97685.80
2024-03-25T00:23:29.134Z,97680.24
2024-03-25T00:26:00.675Z,97681.60
2024-03-25T00:28:32.234Z,97683.87
2024-03-25T00:31:03.852Z,97679.89
2024-03-25T00:33:35.546Z,97678.19
2024-03-25T00:36:08.723Z,97675.91
2024-03-25T00:38:40.294Z,97673.44
2024-03-25T00:41:11.848Z,97671.55
2024-03-25T00:43:44.639Z,97668.27
2024-03-25T00:46:16.189Z,97666.80
2024-03-25T00:48:47.744Z,97666.71
2024-03-25T00:51:19.302Z,97666.20
2024-03-25T00:53:50.862Z,97661.90
2024-03-25T00:56:22.412Z,97660.37
2024-03-25T00:58:54.389Z,97658.27
2024-03-25T01:01:25.930Z,97657.66
2024-03-25T01:03:57.501Z,97662.35
2024-03-25T01:06:29.046Z,97660.30
2024-03-25T01:09:00.604Z,97658.06
2024-03-25T01:11:32.299Z,97658.20
2024-03-25T01:14:03.918Z,97657.80
2024-03-25T01:16:36.493Z,97657.46
2024-03-25T01:19:08.050Z,97656.06
2024-03-25T01:21:40.019Z,97651.23
2024-03-25T01:24:11.564Z,97649.95
2024-03-25T01:26:43.243Z,97651.55
2024-03-25T01:29:14.676Z,97649.77
2024-03-25T01:31:46.231Z,97651.55
2024-03-25T01:34:17.788Z,97648.05
2024-03-25T01:36:49.353Z,97647.41
2024-03-25T01:39:20.899Z,97649.34
2024-03-25T01:41:51.027Z,97649.13
2024-03-25T01:44:22.574Z,97644.92
2024-03-25T01:46:55.921Z,97650.23
2024-03-25T01:49:27.940Z,97650.22
2024-03-25T01:52:00.934Z,97651.02
2024-03-25T01:54:34.362Z,97652.21
2024-03-25T01:57:07.317Z,97647.91
2024-03-25T01:59:39.896Z,97649.32
2024-03-25T02:02:14.728Z,97650.83
2024-03-25T02:04:47.308Z,97648.96
2024-03-25T02:07:20.848Z,97654.40
2024-03-25T02:09:54.516Z,97651.42
2024-03-25T02:12:26.872Z,97642.54
2024-03-25T02:15:00.152Z,97645.73
2024-03-25T02:17:32.249Z,97642.71
2024-03-25T02:20:04.112Z,97636.97
2024-03-25T02:22:37.615Z,97634.55
2024-03-25T02:25:11.624Z,97636.03
2024-03-25T02:27:43.182Z,97641.23
2024-03-25T02:30:16.635Z,97638.98
2024-03-25T02:32:48.141Z,97643.91
2024-03-25T02:35:19.890Z,97644.17
2024-03-25T02:37:53.092Z,97644.85
2024-03-25T02:40:25.261Z,97645.35
2024-03-25T02:42:56.812Z,97649.57
2024-03-25T02:45:28.571Z,97653.20
2024-03-25T02:47:58.692Z,97654.71
2024-03-25T02:50:30.254Z,97657.66
2024-03-25T02:53:01.840Z,97658.18
2024-03-25T02:55:33.363Z,97662.22
2024-03-25T02:58:05.136Z,97658.84
2024-03-25T03:00:35.651Z,97657.72
2024-03-25T03:03:07.334Z,97656.67
2024-03-25T03:05:38.980Z,97655.36
2024-03-25T03:08:10.930Z,97659.88
2024-03-25T03:10:42.495Z,97656.41
2024-03-25T03:13:14.049Z,97660.48
2024-03-25T03:15:48.666Z,97654.91
2024-03-25T03:18:20.229Z,97657.56
2024-03-25T03:20:51.783Z,97660.05
2024-03-25T03:23:23.692Z,97659.89
2024-03-25T03:25:55.306Z,97662.02
2024-03-25T03:28:26.865Z,97664.37
2024-03-25T03:30:58.407Z,97667.83
2024-03-25T03:33:29.963Z,97665.17
2024-03-25T03:36:01.516Z,97667.02
2024-03-25T03:38:33.180Z,97667.70
2024-03-25T03:41:06.204Z,97668.39
2024-03-25T03:43:37.820Z,97667.55
2024-03-25T03:46:09.376Z,97664.64
2024-03-25T03:48:41.134Z,97663.79
2024-03-25T03:51:12.526Z,97665.68
2024-03-25T03:53:44.041Z,97668.33
2024-03-25T03:56:15.619Z,97665.40
2024-03-25T03:58:47.147Z,97672.77
2024-03-25T04:01:20.599Z,97665.77
2024-03-25T04:03:53.758Z,97668.02
2024-03-25T04:06:26.338Z,97672.36
2024-03-25T04:08:57.882Z,97673.70
2024-03-25T04:11:29.436Z,97678.26
2024-03-25T04:14:00.999Z,97677.52
2024-03-25T04:16:33.212Z,97679.36
2024-03-25T04:19:04.716Z,97680.36
2024-03-25T04:21:36.271Z,97677.42
2024-03-25T04:24:09.815Z,97682.81
2024-03-25T04:26:41.239Z,97681.38
2024-03-25T04:29:12.779Z,97680.40
2024-03-25T04:31:44.542Z,97680.35
2024-03-25T04:34:14.664Z,97680.11
2024-03-25T04:36:46.216Z,97680.46
2024-03-25T04:39:17.770Z,97680.27
2024-03-25T04:41:49.943Z,97687.11
2024-03-25T04:44:22.935Z,97682.44
2024-03-25T04:46:54.486Z,97684.50
2024-03-25T04:49:26.041Z,97686.96
2024-03-25T04:51:57.597Z,97688.46
2024-03-25T04:54:29.354Z,97691.95
2024-03-25T04:57:00.927Z,97690.52
2024-03-25T04:59:32.474Z,97693.37
2024-03-25T05:02:04.605Z,97691.12
2024-03-25T05:04:36.396Z,97693.84
2024-03-25T05:07:06.516Z,97692.21
2024-03-25T05:09:38.071Z,97692.20
2024-03-25T05:12:10.381Z,97694.14
2024-03-25T05:14:41.793Z,97697.44
2024-03-25T05:17:13.350Z,97697.85
2024-03-25T05:19:44.906Z,97701.14
2024-03-25T05:22:16.464Z,97703.02
2024-03-25T05:24:47.745Z,97706.54
2024-03-25T05:27:19.169Z,97708.67
2024-03-25T05:29:51.125Z,97706.21
2024-03-25T05:32:23.137Z,97705.59
2024-03-25T05:34:55.071Z,97709.46
2024-03-25T05:37:26.818Z,97708.69
2024-03-25T05:39:56.730Z,97712.00
2024-03-25T05:42:28.297Z,97707.13
2024-03-25T05:45:01.274Z,97710.02
2024-03-25T05:47:32.829Z,97711.85
2024-03-25T05:50:06.481Z,97710.98
2024-03-25T05:52:37.992Z,97709.67
2024-03-25T05:55:11.099Z,97710.20
2024-03-25T05:57:42.533Z,97709.61
2024-03-25T06:00:16.564Z,97709.53
2024-03-25T06:02:48.521Z,97710.27
2024-03-25T06:05:20.068Z,97712.77
2024-03-25T06:07:51.621Z,97710.85
2024-03-25T06:10:21.964Z,97710.80
2024-03-25T06:12:54.537Z,97714.20
2024-03-25T06:15:26.508Z,97716.54
2024-03-25T06:17:58.256Z,97717.19
2024-03-25T06:20:29.809Z,97720.81
2024-03-25T06:23:02.611Z,97726.83
2024-03-25T06:25:34.764Z,97729.38
2024-03-25T06:28:08.067Z,97728.35
2024-03-25T06:30:57.535Z,97728.17
2024-03-25T06:33:46.912Z,97729.14
2024-03-25T06:36:19.822Z,97731.26
2024-03-25T06:38:51.654Z,97735.54
2024-03-25T06:41:23.221Z,97739.69
2024-03-25T06:43:54.772Z,97739.86
2024-03-25T06:46:26.316Z,97740.84
2024-03-25T06:48:57.876Z,97742.27
2024-03-25T06:51:30.044Z,97746.25
2024-03-25T06:54:03.239Z,97748.77
2024-03-25T06:56:34.802Z,97750.13
2024-03-25T06:59:06.384Z,97753.76
2024-03-25T07:01:37.902Z,97759.08
2024-03-25T07:04:09.667Z,97760.33
2024-03-25T07:06:42.447Z,97764.15
2024-03-25T07:09:15.630Z,97761.80
2024-03-25T07:11:48.578Z,97760.23
2024-03-25T07:14:20.607Z,97760.82
2024-03-25T07:16:52.152Z,97762.59
2024-03-25T07:19:23.644Z,97762.95
2024-03-25T07:21:55.260Z,97769.63
2024-03-25T07:24:26.817Z,97769.42
2024-03-25T07:26:58.367Z,97773.70
2024-03-25T07:29:30.539Z,97771.88
2024-03-25T07:32:01.889Z,97776.59
2024-03-25T07:34:33.616Z,97778.03
2024-03-25T07:37:05.923Z,97782.30
2024-03-25T07:39:37.373Z,97781.34
2024-03-25T07:42:09.440Z,97784.46
2024-03-25T07:44:40.892Z,97783.19
2024-03-25T07:47:12.538Z,97787.45
2024-03-25T07:49:44.014Z,97789.08
2024-03-25T07:52:16.120Z,97793.96
2024-03-25T07:54:48.553Z,97795.52
2024-03-25T07:57:20.821Z,97796.54
2024-03-25T07:59:52.694Z,97799.16
2024-03-25T08:02:24.241Z,97798.59
2024-03-25T08:04:56.410Z,97794.18
2024-03-25T08:07:27.969Z,97797.60
2024-03-25T08:09:59.718Z,97798.59
2024-03-25T08:12:31.479Z,97803.20
2024-03-25T08:15:03.059Z,97806.72
2024-03-25T08:17:34.941Z,97807.17
2024-03-25T08:20:09.524Z,97808.09
2024-03-25T08:22:40.981Z,97809.86
2024-03-25T08:25:13.214Z,97814.70
2024-03-25T08:27:44.700Z,97816.43
2024-03-25T08:30:16.970Z,97818.86
2024-03-25T08:32:48.428Z,97821.73
2024-03-25T08:35:19.980Z,97824.84
2024-03-25T08:37:50.126Z,97823.30
2024-03-25T08:40:21.863Z,97826.77
2024-03-25T08:42:53.713Z,97828.30
2024-03-25T08:45:25.434Z,97833.34
2024-03-25T08:47:55.501Z,97832.60
2024-03-25T08:50:27.058Z,97833.42
2024-03-25T08:52:57.181Z,97833.75
2024-03-25T08:55:29.965Z,97835.34
2024-03-25T08:58:01.521Z,97836.52
2024-03-25T09:00:33.282Z,97837.40
2024-03-25T09:03:03.402Z,97837.41
2024-03-25T09:05:37.307Z,97836.97
2024-03-25T09:08:12.897Z,97842.90
2024-03-25T09:11:08.801Z,97841.34
2024-03-25T09:13:40.549Z,97841.48
2024-03-25T09:16:12.510Z,97843.86
2024-03-25T09:18:44.073Z,97847.44
2024-03-25T09:21:15.827Z,97851.50
2024-03-25T09:23:47.380Z,97851.30
2024-03-25T09:26:19.002Z,97852.91
2024-03-25T09:28:49.069Z,97858.48
2024-03-25T09:31:20.614Z,97862.64
2024-03-25T09:33:52.169Z,97861.23
2024-03-25T09:36:23.727Z,97865.01
2024-03-25T09:38:56.969Z,97863.69
2024-03-25T09:41:30.950Z,97861.83
2024-03-25T09:44:05.357Z,97863.73
2024-03-25T09:46:38.561Z,97863.89
2024-03-25T09:49:11.130Z,97860.94
2024-03-25T09:51:42.684Z,97864.74
2024-03-25T09:54:14.443Z,97863.72
2024-03-25T09:56:44.572Z,97866.20
2024-03-25T09:59:18.142Z,97871.59
2024-03-25T10:01:49.759Z,97869.73
2024-03-25T10:04:19.867Z,97865.13
2024-03-25T10:06:52.284Z,97866.64
2024-03-25T10:09:24.487Z,97866.48
2024-03-25T10:11:55.963Z,97871.91
2024-03-25T10:14:26.475Z,97869.53
2024-03-25T10:16:56.591Z,97878.07
2024-03-25T10:19:29.188Z,97879.77
2024-03-25T10:22:07.221Z,97883.23
2024-03-25T10:24:43.755Z,97887.29
2024-03-25T10:27:21.880Z,97885.30
2024-03-25T10:29:56.889Z,97886.33
2024-03-25T10:32:30.141Z,97885.05
2024-03-25T10:35:02.317Z,97885.73
2024-03-25T10:37:35.597Z,97889.28
2024-03-25T10:40:13.977Z,97888.26
2024-03-25T10:42:49.981Z,97886.48
2024-03-25T10:45:22.415Z,97885.80
2024-03-25T10:47:53.964Z,97883.22
2024-03-25T10:50:31.304Z,97884.94
2024-03-25T10:53:04.673Z,97885.02
2024-03-25T10:55:39.912Z,97886.90
2024-03-25T10:58:12.432Z,97888.31
2024-03-25T11:00:45.581Z,97890.80
2024-03-25T11:03:17.894Z,97889.75
2024-03-25T11:05:49.616Z,97892.67
2024-03-25T11:08:22.495Z,97892.77
2024-03-25T11:10:54.152Z,97891.39
2024-03-25T11:13:25.700Z,97893.05
2024-03-25T11:16:00.098Z,97891.41
2024-03-25T11:18:35.092Z,97891.76
2024-03-25T11:21:11.027Z,97895.53
2024-03-25T11:23:46.262Z,97891.41
2024-03-25T11:26:27.441Z,97887.06
2024-03-25T11:28:58.997Z,97886.95
2024-03-25T11:31:34.177Z,97888.35
2024-03-25T11:34:09.379Z,97893.72
2024-03-25T11:36:41.650Z,97892.55
2024-03-25T11:39:14.369Z,97900.11
2024-03-25T11:41:47.217Z,97900.39
2024-03-25T11:44:20.823Z,97900.78
2024-03-25T11:46:54.843Z,97899.84
2024-03-25T11:49:27.194Z,97900.17
2024-03-25T11:52:01.422Z,97899.27
2024-03-25T11:54:32.984Z,97900.77
2024-03-25T11:57:05.089Z,97902.21
2024-03-25T11:59:36.919Z,97903.45
2024-03-25T12:02:10.802Z,97914.31
2024-03-25T12:04:46.233Z,97929.65
2024-03-25T12:07:18.542Z,97927.05
2024-03-25T12:10:08.324Z,97924.80
2024-03-25T12:12:40.494Z,97921.73
2024-03-25T12:15:12.621Z,97920.93
2024-03-25T12:17:44.091Z,97923.80
2024-03-25T12:20:14.787Z,97925.08
2024-03-25T12:22:47.564Z,97919.40
2024-03-25T12:25:23.387Z,97910.48
2024-03-25T12:27:54.676Z,97907.34
2024-03-25T12:30:26.323Z,97915.07
2024-03-25T12:32:59.296Z,97918.67
2024-03-25T12:35:37.394Z,97918.66
2024-03-25T12:38:09.152Z,97919.16
2024-03-25T12:40:40.715Z,97923.40
2024-03-25T12:43:22.347Z,97921.81
2024-03-25T12:45:59.769Z,97923.35
2024-03-25T12:48:33.191Z,97928.89
2024-03-25T12:51:05.988Z,97929.23
2024-03-25T12:53:37.532Z,97929.63
2024-03-25T12:56:10.127Z,97930.42
2024-03-25T12:58:41.669Z,97928.87
2024-03-25T13:01:13.639Z,97933.56
2024-03-25T13:03:45.195Z,97939.83
2024-03-25T13:06:16.743Z,97942.17
2024-03-25T13:08:46.680Z,97946.46
2024-03-25T13:11:18.434Z,97946.86
2024-03-25T13:13:49.975Z,97955.02
2024-03-25T13:16:21.526Z,97959.63
2024-03-25T13:18:53.079Z,97957.20
2024-03-25T13:21:26.717Z,97961.20
2024-03-25T13:23:58.241Z,97958.35
2024-03-25T13:26:28.360Z,97958.91
2024-03-25T13:29:00.019Z,97959.05
2024-03-25T13:31:32.909Z,97952.86
2024-03-25T13:34:04.664Z,97957.27
2024-03-25T13:36:36.607Z,97956.58
2024-03-25T13:39:09.749Z,97956.95
2024-03-25T13:41:41.787Z,97961.66
2024-03-25T13:44:13.344Z,97966.11
2024-03-25T13:46:43.467Z,97968.14
2024-03-25T13:49:16.457Z,97971.59
2024-03-25T13:51:48.662Z,97973.39
2024-03-25T13:54:20.180Z,97973.27
2024-03-25T13:56:50.105Z,97978.55
2024-03-25T13:59:22.083Z,97978.70
2024-03-25T14:01:55.258Z,97980.12
2024-03-25T14:04:28.040Z,97978.36
2024-03-25T14:06:59.597Z,97978.27
2024-03-25T14:09:30.335Z,97976.69
2024-03-25T14:12:02.301Z,97982.20
2024-03-25T14:14:33.855Z,97984.57
2024-03-25T14:17:03.978Z,97988.48
2024-03-25T14:19:35.533Z,97985.34
2024-03-25T14:22:07.084Z,97988.43
2024-03-25T14:24:38.641Z,97991.11
2024-03-25T14:27:10.399Z,97993.30
2024-03-25T14:29:41.963Z,97990.41
2024-03-25T14:32:13.514Z,97989.98
2024-03-25T14:34:45.683Z,97991.43
2024-03-25T14:37:18.269Z,97988.75
2024-03-25T14:39:50.446Z,97985.93
2024-03-25T14:42:21.994Z,97981.05
2024-03-25T14:44:53.546Z,97985.67
2024-03-25T14:47:25.144Z,97989.60
2024-03-25T14:49:56.654Z,97984.71
2024-03-25T14:52:28.212Z,97980.52
2024-03-25T14:55:03.468Z,97979.42
2024-03-25T14:57:35.219Z,97979.71
2024-03-25T15:00:08.498Z,97978.00
2024-03-25T15:02:40.158Z,97977.91
2024-03-25T15:05:12.120Z,97977.09
2024-03-25T15:07:43.714Z,97972.30
2024-03-25T15:10:15.238Z,97972.27
2024-03-25T15:12:48.427Z,97972.58
2024-03-25T15:15:20.161Z,97977.94
2024-03-25T15:17:51.908Z,97980.31
2024-03-25T15:20:23.598Z,97979.16
2024-03-25T15:22:56.694Z,97984.88
2024-03-25T15:25:28.750Z,97983.85
2024-03-25T15:28:00.212Z,97987.48
2024-03-25T15:30:32.785Z,97992.67
2024-03-25T15:33:04.575Z,97988.97
2024-03-25T15:35:36.111Z,97993.31
2024-03-25T15:38:08.272Z,97999.59
2024-03-25T15:40:39.826Z,98012.58
2024-03-25T15:43:11.382Z,98013.45
2024-03-25T15:45:42.958Z,98021.35
2024-03-25T15:48:14.555Z,98027.34
2024-03-25T15:50:47.277Z,98042.63
2024-03-25T15:53:19.037Z,98045.94
2024-03-25T15:55:52.281Z,98049.40
2024-03-25T15:58:23.791Z,98054.84
2024-03-25T16:00:53.915Z,98061.70
2024-03-25T16:03:26.819Z,98066.76
2024-03-25T16:05:58.449Z,98055.61
2024-03-25T16:08:28.650Z,98052.77
2024-03-25T16:11:00.540Z,98048.40
2024-03-25T16:13:33.542Z,98048.03
2024-03-25T16:16:08.132Z,98041.08
2024-03-25T16:18:40.116Z,98043.38
2024-03-25T16:21:19.652Z,98046.02
2024-03-25T16:23:51.276Z,98040.21
2024-03-25T16:26:24.734Z,98041.08
2024-03-25T16:28:56.192Z,98048.96
2024-03-25T16:31:27.538Z,98047.90
2024-03-25T16:33:59.720Z,98047.80
2024-03-25T16:36:31.242Z,98045.46
2024-03-25T16:39:04.723Z,98050.98
2024-03-25T16:41:36.095Z,98049.52
2024-03-25T16:44:07.587Z,98056.00
2024-03-25T16:46:38.974Z,98055.92
2024-03-25T16:49:10.358Z,98062.46
2024-03-25T16:51:41.736Z,98063.30
2024-03-25T16:54:13.170Z,98067.55
2024-03-25T16:56:44.516Z,98069.70
2024-03-25T16:59:15.874Z,98070.92
2024-03-25T17:01:48.057Z,98077.52
2024-03-25T17:04:19.797Z,98084.20
2024-03-25T17:06:51.195Z,98087.21
2024-03-25T17:09:22.585Z,98088.65
2024-03-25T17:11:54.138Z,98090.88
2024-03-25T17:14:26.027Z,98094.84
2024-03-25T17:17:21.523Z,98097.66
2024-03-25T17:19:49.492Z,98102.59
2024-03-25T17:22:20.776Z,98106.70
2024-03-25T17:24:53.812Z,98114.77
2024-03-25T17:27:25.584Z,98117.95
2024-03-25T17:29:57.392Z,98118.02
2024-03-25T17:32:28.848Z,98118.65
2024-03-25T17:35:00.262Z,98122.40
2024-03-25T17:37:32.237Z,98127.16
2024-03-25T17:40:05.217Z,98130.98
2024-03-25T17:42:36.521Z,98131.66
2024-03-25T17:45:08.897Z,98128.37
2024-03-25T17:47:40.218Z,98130.61
2024-03-25T17:50:12.823Z,98134.41
2024-03-25T17:52:44.520Z,98133.20
2024-03-25T17:55:14.419Z,98136.09
2024-03-25T17:57:45.751Z,98137.58
2024-03-25T18:00:17.652Z,98137.35
2024-03-25T18:02:49.888Z,98134.68
2024-03-25T18:05:21.314Z,98131.23
2024-03-25T18:07:53.431Z,98133.57
2024-03-25T18:10:24.834Z,98135.64
2024-03-25T18:12:56.222Z,98139.55
2024-03-25T18:15:28.000Z,98144.23
2024-03-25T18:17:59.516Z,98147.80
2024-03-25T18:20:30.854Z,98150.02
2024-03-25T18:23:02.198Z,98155.91
2024-03-25T18:25:33.700Z,98157.81
2024-03-25T18:28:05.680Z,98161.94
2024-03-25T18:30:37.427Z,98168.21
2024-03-25T18:33:07.593Z,98173.35
2024-03-25T18:35:41.050Z,98173.94
2024-03-25T18:38:12.544Z,98178.91
2024-03-25T18:40:44.457Z,98182.94
2024-03-25T18:43:15.884Z,98184.26
2024-03-25T18:45:47.235Z,98186.76
2024-03-25T18:48:19.182Z,98194.43
2024-03-25T18:50:50.579Z,98195.14
2024-03-25T18:53:21.944Z,98197.36
2024-03-25T18:55:53.316Z,98201.13
2024-03-25T18:58:24.640Z,98203.83
2024-03-25T19:00:55.966Z,98201.27
2024-03-25T19:03:27.324Z,98205.73
2024-03-25T19:05:58.713Z,98210.46
2024-03-25T19:08:30.072Z,98210.04
2024-03-25T19:11:01.470Z,98214.52
2024-03-25T19:13:34.162Z,98218.27
2024-03-25T19:16:06.520Z,98225.02
2024-03-25T19:18:37.825Z,98224.89
2024-03-25T19:21:09.183Z,98227.86
2024-03-25T19:23:40.639Z,98226.05
2024-03-25T19:26:12.112Z,98223.77
2024-03-25T19:28:43.469Z,98222.81
2024-03-25T19:31:14.835Z,98225.21
2024-03-25T19:33:46.482Z,98223.73
2024-03-25T19:36:17.860Z,98223.31
2024-03-25T19:38:49.185Z,98222.36
2024-03-25T19:41:21.378Z,98222.65
2024-03-25T19:43:55.018Z,98222.67
2024-03-25T19:46:26.374Z,98222.64
2024-03-25T19:48:57.670Z,98224.98
2024-03-25T19:51:29.086Z,98223.61
2024-03-25T19:54:00.483Z,98222.35
2024-03-25T19:56:31.848Z,98228.52
2024-03-25T19:59:03.143Z,98229.24
2024-03-25T20:01:35.034Z,98235.91
2024-03-25T20:04:06.787Z,98238.73
2024-03-25T20:06:36.648Z,98236.98
2024-03-25T20:09:08.009Z,98237.11
2024-03-25T20:11:39.608Z,98239.42
2024-03-25T20:14:10.924Z,98233.89
2024-03-25T20:16:42.744Z,98235.96
2024-03-25T20:19:14.887Z,98242.85
2024-03-25T20:21:46.273Z,98240.00
2024-03-25T20:24:17.622Z,98241.42
2024-03-25T20:26:48.974Z,98246.48
2024-03-25T20:29:20.509Z,98249.06
2024-03-25T20:31:52.996Z,98245.11
2024-03-25T20:34:24.355Z,98253.26
2024-03-25T20:36:55.745Z,98253.30
2024-03-25T20:39:27.096Z,98256.92
2024-03-25T20:41:58.479Z,98257.20
2024-03-25T20:44:29.841Z,98259.15
2024-03-25T20:47:01.163Z,98259.05
2024-03-25T20:49:32.489Z,98261.52
2024-03-25T20:52:03.810Z,98265.42
2024-03-25T20:54:35.303Z,98265.84
2024-03-25T20:57:07.304Z,98266.38
2024-03-25T20:59:38.767Z,98264.77
2024-03-25T21:02:10.092Z,98266.08
2024-03-25T21:04:41.797Z,98271.27
2024-03-25T21:07:11.675Z,98267.54
2024-03-25T21:09:42.977Z,98267.42
2024-03-25T21:12:15.708Z,98270.47
2024-03-25T21:14:47.083Z,98269.46
2024-03-25T21:17:19.051Z,98266.84
2024-03-25T21:19:50.362Z,98269.87
2024-03-25T21:22:23.136Z,98270.25
2024-03-25T21:24:54.421Z,98275.69
2024-03-25T21:27:25.768Z,98276.49
2024-03-25T21:29:57.046Z,98278.27
2024-03-25T21:32:27.767Z,98279.88
2024-03-25T21:34:59.030Z,98279.16
2024-03-25T21:37:30.397Z,98276.84
2024-03-25T21:40:01.865Z,98281.52
2024-03-25T21:42:33.595Z,98278.73
2024-03-25T21:45:03.488Z,98278.86
2024-03-25T21:47:35.025Z,98275.10
2024-03-25T21:50:07.189Z,98279.14
2024-03-25T21:52:38.559Z,98281.48
2024-03-25T21:55:10.736Z,98284.67
2024-03-25T21:57:42.135Z,98284.59
2024-03-25T22:00:16.289Z,98283.82
2024-03-25T22:02:47.681Z,98283.70
2024-03-25T22:05:19.182Z,98288.45
2024-03-25T22:07:50.632Z,98288.91
2024-03-25T22:10:21.979Z,98289.86
2024-03-25T22:12:53.311Z,98292.45
2024-03-25T22:15:24.647Z,98295.61
2024-03-25T22:17:56.348Z,98290.70
2024-03-25T22:20:26.215Z,98294.79
2024-03-25T22:22:57.682Z,98295.73
2024-03-25T22:25:29.017Z,98296.46
2024-03-25T22:28:00.397Z,98296.13
2024-03-25T22:30:31.807Z,98299.31
2024-03-25T22:33:03.182Z,98296.98
2024-03-25T22:35:34.491Z,98297.91
2024-03-25T22:38:06.064Z,98307.56
2024-03-25T22:40:40.021Z,98307.47
2024-03-25T22:43:11.401Z,98305.30
2024-03-25T22:45:42.790Z,98308.04
2024-03-25T22:48:14.164Z,98306.81
2024-03-25T22:50:56.266Z,98301.37
2024-03-25T22:53:28.788Z,98303.66
2024-03-25T22:56:06.115Z,98308.11
2024-03-25T22:58:38.420Z,98309.29
2024-03-25T23:01:11.617Z,98305.29
2024-03-25T23:03:42.973Z,98305.60
2024-03-25T23:06:14.247Z,98305.67
2024-03-25T23:08:45.630Z,98306.13
2024-03-25T23:11:17.061Z,98309.09
2024-03-25T23:13:48.382Z,98306.60
2024-03-25T23:16:19.730Z,98303.39
2024-03-25T23:18:51.515Z,98306.91
2024-03-25T23:21:21.397Z,98309.69
2024-03-25T23:23:52.801Z,98307.00
2024-03-25T23:26:24.474Z,98304.95
2024-03-25T23:28:57.184Z,98312.03
2024-03-25T23:31:28.553Z,98312.34
2024-03-25T23:33:59.895Z,98316.79
2024-03-25T23:36:31.249Z,98315.85
2024-03-25T23:39:04.408Z,98315.70
2024-03-25T23:41:35.731Z,98317.23
2024-03-25T23:44:07.430Z,98318.80
2024-03-25T23:46:38.799Z,98321.45
2024-03-25T23:49:10.123Z,98325.73
2024-03-25T23:51:41.410Z,98327.20
2024-03-25T23:54:14.861Z,98329.91
2024-03-25T23:56:46.161Z,98333.20
2024-03-25T23:59:17.555Z,98333.66
